Time;durP1;ratioP1;P1;durP2;ratioP2;P2;SDS_P1;SDS_P2;PMS_P1;PMS_P2;Temp;Humidity;BMP_temperature;BMP_pressure;BME280_temperature;BME280_humidity;BME280_pressure;Samples;Min_cycle;Max_cycle;Signal;HPM_P1;HPM_P2
2021/01/20 00:02:15;;;;;;;10.50;7.20;;;;;;;22.55;30.64;95455.69;4973733;28;20039;-81
2021/01/20 00:04:40;;;;;;;10.32;6.80;;;;;;;22.50;30.57;95459.16;4990665;28;20022;-79
2021/01/20 00:07:06;;;;;;;9.85;6.95;;;;;;;22.43;30.65;95432.41;4990153;28;20022;-80
2021/01/20 00:09:31;;;;;;;9.85;7.03;;;;;;;22.46;30.65;95447.75;4975549;28;20026;-81
2021/01/20 00:11:57;;;;;;;10.07;7.30;;;;;;;22.45;30.80;95462.59;4976815;28;20033;-81
2021/01/20 00:14:22;;;;;;;10.65;7.30;;;;;;;22.46;30.69;95459.38;4993075;28;20031;-82
2021/01/20 00:16:48;;;;;;;10.18;7.10;;;;;;;22.46;30.78;95450.47;4978991;28;20488;-80
2021/01/20 00:19:13;;;;;;;9.35;6.88;;;;;;;22.45;30.84;95451.69;4987448;28;20031;-81
2021/01/20 00:21:39;;;;;;;9.43;6.78;;;;;;;22.43;30.80;95459.63;4986379;28;20030;-82
2021/01/20 00:24:05;;;;;;;10.07;7.05;;;;;;;22.42;30.71;95469.03;4998651;28;20039;-82
2021/01/20 00:26:30;;;;;;;10.45;7.25;;;;;;;22.29;30.51;95438.81;4980781;28;20049;-82
2021/01/20 00:28:56;;;;;;;9.10;6.57;;;;;;;22.40;30.76;95455.16;4979709;28;20200;-82
2021/01/20 00:31:21;;;;;;;9.93;6.60;;;;;;;22.41;30.67;95466.81;4980199;28;20085;-82
2021/01/20 00:33:47;;;;;;;9.75;6.63;;;;;;;22.38;30.67;95457.63;4980828;28;20041;-82
2021/01/20 00:36:12;;;;;;;9.88;6.97;;;;;;;22.36;30.71;95476.44;4979472;28;20034;-81
2021/01/20 00:38:38;;;;;;;10.00;7.18;;;;;;;22.38;30.71;95473.97;4979863;28;20531;-83
2021/01/20 00:41:03;;;;;;;10.10;6.88;;;;;;;22.34;30.80;95462.56;4979710;28;20026;-80
2021/01/20 00:43:29;;;;;;;9.32;6.90;;;;;;;22.23;30.63;95450.94;4979822;28;20035;-81
2021/01/20 00:45:55;;;;;;;9.55;6.55;;;;;;;22.33;30.71;95461.09;4978302;28;20019;-81
2021/01/20 00:48:21;;;;;;;9.40;6.70;;;;;;;22.29;30.84;95463.31;4979153;28;20130;-80
2021/01/20 00:50:46;;;;;;;10.73;7.63;;;;;;;22.31;30.75;95451.94;4979528;28;20027;-81
2021/01/20 00:53:11;;;;;;;9.63;7.28;;;;;;;22.30;30.81;95451.19;4979189;28;20488;-81
2021/01/20 00:55:37;;;;;;;10.70;7.10;;;;;;;22.31;30.79;95455.38;4979982;28;20471;-81
2021/01/20 00:58:02;;;;;;;8.70;6.10;;;;;;;22.31;30.80;95469.00;4981583;28;20475;-81
2021/01/20 01:00:28;;;;;;;10.63;7.50;;;;;;;22.29;30.86;95466.03;4980809;28;20030;-83
2021/01/20 01:02:53;;;;;;;10.15;7.32;;;;;;;22.28;30.76;95464.53;4980294;28;20035;-81
2021/01/20 01:05:19;;;;;;;10.43;7.47;;;;;;;22.31;30.67;95468.25;4980002;28;20030;-82
2021/01/20 01:07:44;;;;;;;9.50;6.72;;;;;;;22.23;30.67;95454.38;4979658;28;20509;-82
2021/01/20 01:10:10;;;;;;;8.40;6.45;;;;;;;22.27;30.72;95467.75;4979845;28;20019;-82
2021/01/20 01:12:36;;;;;;;9.90;6.85;;;;;;;22.26;30.73;95464.28;4979448;28;20420;-82
2021/01/20 01:15:02;;;;;;;9.68;6.85;;;;;;;22.23;30.94;95459.81;4979961;28;20034;-81
2021/01/20 01:17:27;;;;;;;11.27;7.40;;;;;;;22.11;30.72;95444.69;4980519;28;20023;-82
2021/01/20 01:19:53;;;;;;;9.82;7.10;;;;;;;22.25;30.86;95465.50;4980423;28;20416;-81
2021/01/20 01:22:18;;;;;;;9.50;7.25;;;;;;;22.25;30.92;95465.50;4979510;28;20019;-81
2021/01/20 01:24:44;;;;;;;10.20;6.72;;;;;;;22.25;30.70;95470.97;4979244;28;20409;-81
2021/01/20 01:27:09;;;;;;;9.25;6.72;;;;;;;22.23;30.72;95468.00;4979949;28;20487;-82
2021/01/20 01:29:34;;;;;;;10.45;6.85;;;;;;;22.15;30.76;95445.19;4977774;28;20035;-82
2021/01/20 01:32:00;;;;;;;10.63;6.82;;;;;;;22.12;30.87;95446.19;4976670;28;20435;-81
2021/01/20 01:34:25;;;;;;;9.35;6.57;;;;;;;22.02;30.96;95447.63;4977462;28;20026;-82
2021/01/20 01:36:51;;;;;;;9.38;6.57;;;;;;;21.94;31.15;95434.97;4975371;28;20046;-81
2021/01/20 01:39:17;;;;;;;10.45;7.25;;;;;;;21.90;31.02;95422.84;4976793;28;20019;-83
2021/01/20 01:41:42;;;;;;;9.15;6.95;;;;;;;21.90;31.13;95428.28;4976443;28;20388;-81
2021/01/20 01:44:08;;;;;;;9.90;7.20;;;;;;;21.92;31.00;95432.75;4976118;28;20031;-82
2021/01/20 01:46:34;;;;;;;10.88;7.15;;;;;;;21.99;31.06;95426.84;4976366;28;20153;-81
2021/01/20 01:48:59;;;;;;;9.65;6.65;;;;;;;22.01;30.97;95440.69;4976446;28;20038;-81
2021/01/20 01:51:24;;;;;;;10.10;7.03;;;;;;;22.01;30.84;95429.81;4976341;28;20097;-80
2021/01/20 01:53:50;;;;;;;9.65;6.28;;;;;;;22.05;30.77;95443.91;4976647;28;20472;-82
2021/01/20 01:56:16;;;;;;;8.52;6.60;;;;;;;22.06;30.85;95447.38;4976207;28;20041;-81
2021/01/20 01:58:42;;;;;;;9.77;7.35;;;;;;;22.04;30.99;95439.69;4976522;28;20518;-81
2021/01/20 02:01:07;;;;;;;8.23;6.40;;;;;;;22.10;30.77;95442.44;4977820;28;20037;-81
2021/01/20 02:03:33;;;;;;;9.05;6.53;;;;;;;22.10;30.85;95448.63;4976404;28;20022;-81
2021/01/20 02:05:58;;;;;;;9.30;7.00;;;;;;;22.09;30.78;95451.84;4992731;28;20118;-81
2021/01/20 02:08:24;;;;;;;10.23;6.63;;;;;;;22.05;30.96;95452.06;4995382;28;20022;-80
2021/01/20 02:10:52;;;;;;;9.40;6.97;;;;;;;22.06;30.91;95441.94;4995601;28;20034;-81
2021/01/20 02:13:36;;;;;;;9.77;6.78;;;;;;;22.06;30.98;95448.13;4994622;28;20023;-80
2021/01/20 02:16:11;;;;;;;10.70;7.63;;;;;;;22.07;30.83;95449.59;4994760;28;20562;-81
2021/01/20 02:18:37;;;;;;;9.63;6.70;;;;;;;22.04;30.87;95445.13;4994491;28;20033;-81
2021/01/20 02:21:38;;;;;;;9.32;6.85;;;;;;;22.04;30.80;95449.84;4993962;28;20085;-81
2021/01/20 02:24:08;;;;;;;9.48;7.03;;;;;;;22.06;30.77;95437.25;4915734;29;20032;-82
2021/01/20 02:26:45;;;;;;;9.82;6.53;;;;;;;22.06;30.84;95437.25;4964943;28;20420;-82
2021/01/20 02:29:30;;;;;;;10.68;6.90;;;;;;;22.06;30.76;95442.69;4994889;28;20041;-82
2021/01/20 02:31:56;;;;;;;9.73;6.80;;;;;;;22.06;30.85;95455.53;4993106;28;20058;-81
2021/01/20 02:34:22;;;;;;;9.25;7.15;;;;;;;22.03;30.85;95440.19;4994134;28;20474;-81
2021/01/20 02:36:48;;;;;;;8.77;6.53;;;;;;;22.04;30.89;95441.69;4995198;28;20535;-80
2021/01/20 02:39:14;;;;;;;9.30;6.63;;;;;;;21.88;30.75;95411.72;4978440;28;20154;-82
2021/01/20 02:41:39;;;;;;;8.75;6.97;;;;;;;22.05;30.88;95441.19;4976177;28;20022;-82
2021/01/20 02:44:05;;;;;;;9.75;7.15;;;;;;;22.00;30.79;95439.22;4994378;28;20026;-81
2021/01/20 02:46:31;;;;;;;9.48;6.68;;;;;;;21.92;30.79;95427.31;4993954;28;20010;-82
2021/01/20 02:48:56;;;;;;;9.43;6.78;;;;;;;21.95;30.95;95425.59;4995414;28;20069;-81
2021/01/20 02:51:26;;;;;;;9.68;6.32;;;;;;;22.06;30.73;95437.25;4993578;28;20026;-82
2021/01/20 02:53:52;;;;;;;;;;;;;;;22.05;30.93;95446.63;4977095;28;20037;-81
2021/01/20 02:56:17;;;;;;;9.40;6.43;;;;;;;22.02;30.68;95442.19;5007145;23;19922;-82
2021/01/20 02:58:46;;;;;;;8.88;6.32;;;;;;;22.00;30.83;95438.44;4992779;28;20034;-81
2021/01/20 03:01:11;;;;;;;9.40;6.43;;;;;;;21.84;30.89;95413.94;4993608;28;20496;-83
2021/01/20 03:03:37;;;;;;;8.27;6.38;;;;;;;22.03;30.65;95449.13;4976944;28;20022;-83
2021/01/20 03:06:02;;;;;;;9.02;6.80;;;;;;;22.04;30.72;95449.84;4993823;28;20017;-83
2021/01/20 03:08:28;;;;;;;7.95;5.95;;;;;;;22.02;30.85;95447.63;4993470;28;20022;-83
2021/01/20 03:10:54;;;;;;;8.95;6.45;;;;;;;21.99;30.82;95435.00;4976942;28;20030;-82
2021/01/20 03:13:19;;;;;;;8.02;6.32;;;;;;;22.02;30.73;95436.75;4993816;28;20495;-83
2021/01/20 03:15:45;;;;;;;9.13;6.40;;;;;;;22.03;30.84;95435.53;4993337;28;20414;-83
2021/01/20 03:18:11;;;;;;;9.23;6.57;;;;;;;21.99;30.85;95435.00;4993387;28;20527;-82
2021/01/20 03:20:36;;;;;;;7.82;6.00;;;;;;;21.99;30.73;95424.13;4992450;28;20419;-83
2021/01/20 03:23:02;;;;;;;9.88;6.43;;;;;;;21.98;30.77;95430.78;4995190;28;20048;-82
2021/01/20 03:25:28;;;;;;;9.50;6.70;;;;;;;22.04;30.76;95436.97;4994638;28;20026;-82
2021/01/20 03:27:53;;;;;;;9.25;6.35;;;;;;;22.03;30.66;95435.53;4992738;28;20037;-82
2021/01/20 03:30:19;;;;;;;8.23;5.82;;;;;;;22.02;30.85;95431.31;4993900;28;20034;-82
2021/01/20 03:32:44;;;;;;;9.30;6.47;;;;;;;22.00;30.71;95433.78;4993439;28;20034;-82
2021/01/20 03:35:10;;;;;;;9.05;6.38;;;;;;;21.99;30.73;95437.72;4993592;28;20030;-83
2021/01/20 03:37:36;;;;;;;8.27;6.20;;;;;;;22.00;30.86;95441.94;4993288;28;20038;-83
2021/01/20 03:40:06;;;;;;;7.90;5.47;;;;;;;22.02;30.78;95441.44;4996070;28;20492;-82
2021/01/20 03:42:32;;;;;;;8.27;6.45;;;;;;;21.97;30.82;95442.91;4993159;28;20030;-83
2021/01/20 03:44:57;;;;;;;8.65;6.40;;;;;;;21.99;30.85;95431.53;4992912;28;20045;-81
2021/01/20 03:47:22;;;;;;;7.97;5.97;;;;;;;22.01;30.75;95437.97;4992926;28;20026;-82
2021/01/20 03:49:48;;;;;;;9.20;6.35;;;;;;;22.00;30.68;95450.09;4992688;28;20027;-82
2021/01/20 03:52:13;;;;;;;8.63;6.28;;;;;;;22.00;30.72;95433.78;4992879;28;20085;-82
2021/01/20 03:54:39;;;;;;;8.20;5.75;;;;;;;21.95;30.73;95437.19;4991663;28;20030;-82
2021/01/20 03:57:04;;;;;;;8.35;5.95;;;;;;;22.00;30.72;95431.06;4992260;28;20517;-80
2021/01/20 03:59:30;;;;;;;9.32;5.70;;;;;;;21.99;30.79;95437.72;4992096;28;20038;-82
2021/01/20 04:01:56;;;;;;;7.45;5.50;;;;;;;22.01;30.66;95440.69;4993347;28;20109;-83
2021/01/20 04:04:22;;;;;;;8.60;6.25;;;;;;;21.98;30.75;95430.78;4993335;28;20034;-83
2021/01/20 04:06:47;;;;;;;7.65;6.00;;;;;;;21.83;30.60;95428.78;4992601;28;20104;-82
2021/01/20 04:09:13;;;;;;;9.25;6.50;;;;;;;21.97;30.74;95453.03;4993036;28;20038;-82
2021/01/20 04:11:38;;;;;;;8.40;5.90;;;;;;;21.98;30.80;95441.66;4992295;28;20042;-81
2021/01/20 04:14:04;;;;;;;8.85;6.40;;;;;;;22.00;30.59;95443.88;4992991;28;20104;-81
2021/01/20 04:16:29;;;;;;;8.32;5.97;;;;;;;21.99;30.57;95442.44;4991943;28;20030;-82
2021/01/20 04:18:54;;;;;;;7.47;5.80;;;;;;;21.96;30.63;95438.69;4992431;28;20049;-83
2021/01/20 04:21:20;;;;;;;8.45;6.03;;;;;;;21.97;30.73;95440.19;4992398;28;20026;-82
2021/01/20 04:23:46;;;;;;;8.07;5.47;;;;;;;21.98;30.78;95430.06;4992729;28;20035;-82
2021/01/20 04:26:11;;;;;;;8.32;5.80;;;;;;;21.97;30.68;95448.34;4993316;28;20030;-82
2021/01/20 04:28:37;;;;;;;9.48;6.25;;;;;;;21.95;30.72;95458.94;4992406;28;20415;-83
2021/01/20 04:31:03;;;;;;;8.55;5.95;;;;;;;21.92;30.57;95442.88;4992467;28;20038;-83
2021/01/20 04:33:28;;;;;;;7.63;5.57;;;;;;;21.85;30.60;95437.91;4991041;28;20038;-83
2021/01/20 04:35:54;;;;;;;8.27;6.13;;;;;;;21.99;30.74;95481.22;4991229;28;20121;-82
2021/01/20 04:38:19;;;;;;;8.05;5.72;;;;;;;21.98;30.69;95463.41;4981182;28;20105;-82
2021/01/20 04:40:45;;;;;;;8.13;5.70;;;;;;;21.97;30.79;95472.81;4973902;28;20030;-81
2021/01/20 04:43:11;;;;;;;8.48;5.90;;;;;;;21.92;30.85;95476.25;4974007;28;20031;-83
2021/01/20 04:45:36;;;;;;;7.68;5.90;;;;;;;21.92;30.74;95476.25;4975281;28;20082;-83
2021/01/20 04:48:02;;;;;;;9.52;5.90;;;;;;;21.93;30.84;95477.75;4974166;28;20065;-83
2021/01/20 04:50:30;;;;;;;7.07;5.43;;;;;;;21.92;30.76;95480.22;4974078;28;20093;-82
2021/01/20 04:52:55;;;;;;;7.80;5.20;;;;;;;21.93;30.80;95487.88;4972371;28;20042;-82
2021/01/20 04:55:21;;;;;;;7.47;5.50;;;;;;;21.82;30.56;95460.63;4955892;28;20027;-83
2021/01/20 04:57:46;;;;;;;7.68;5.55;;;;;;;21.92;30.71;95491.09;4955782;28;20131;-84
2021/01/20 05:00:12;;;;;;;7.82;5.80;;;;;;;21.96;30.69;95487.66;4973983;28;20038;-82
2021/01/20 05:02:37;;;;;;;8.35;5.43;;;;;;;21.68;30.80;95455.38;4982212;28;20053;-85
2021/01/20 05:05:04;;;;;;;6.75;5.30;;;;;;;21.96;30.48;95523.00;4991967;28;20097;-86
2021/01/20 05:07:30;;;;;;;6.60;5.30;;;;;;;21.78;30.51;95481.13;4993582;28;20098;-83
2021/01/20 05:09:55;;;;;;;8.63;5.45;;;;;;;22.01;30.64;95532.41;4998208;28;20503;-87
2021/01/20 05:12:43;;;;;;;7.47;5.53;;;;;;;21.99;30.82;95519.31;4993996;28;20507;-85
2021/01/20 05:15:10;;;;;;;8.55;5.63;;;;;;;22.05;30.78;95528.22;4944765;28;20049;-87
2021/01/20 05:17:36;;;;;;;7.65;5.60;;;;;;;22.07;30.77;95530.47;4965091;28;20030;-86
2021/01/20 05:20:03;;;;;;;7.10;5.43;;;;;;;22.10;30.71;95519.34;4997208;28;20080;-78
2021/01/20 05:22:30;;;;;;;8.45;5.75;;;;;;;22.14;30.67;95530.75;4995322;28;20053;-78
2021/01/20 05:25:03;;;;;;;7.22;5.28;;;;;;;22.19;30.65;95510.97;4992949;28;20030;-81
2021/01/20 05:27:29;;;;;;;7.10;5.32;;;;;;;22.25;30.49;95509.03;4996004;28;20089;-83
2021/01/20 05:30:06;;;;;;;7.82;5.13;;;;;;;22.30;30.35;95505.63;4996079;28;20034;-88
2021/01/20 05:32:31;;;;;;;8.07;5.68;;;;;;;22.36;30.38;95514.53;4995600;28;20030;-87
2021/01/20 05:35:09;;;;;;;6.72;4.90;;;;;;;22.29;30.14;95504.13;4997931;28;20096;-90
2021/01/20 05:37:44;;;;;;;8.20;5.68;;;;;;;22.50;30.02;95524.47;5002435;28;20026;-94
2021/01/20 05:40:11;;;;;;;7.30;5.25;;;;;;;22.56;30.15;95533.38;4990711;28;20153;-85
2021/01/20 05:42:44;;;;;;;8.48;5.55;;;;;;;22.66;29.88;95516.34;4998147;28;20026;-78
2021/01/20 05:45:10;;;;;;;7.80;5.80;;;;;;;22.73;29.47;95526.00;4994846;28;20053;-80
2021/01/20 05:47:36;;;;;;;7.80;5.38;;;;;;;22.79;29.56;95513.88;4994993;28;20027;-96
2021/01/20 05:50:08;;;;;;;7.78;5.55;;;;;;;22.87;29.38;95525.03;4973593;28;20035;-87
2021/01/20 05:52:33;;;;;;;6.28;4.80;;;;;;;22.91;29.57;95515.38;4997183;28;20022;-93
2021/01/20 05:55:09;;;;;;;7.03;5.15;;;;;;;23.01;29.41;95520.13;4998476;28;20025;-94
2021/01/20 05:57:34;;;;;;;7.10;5.18;;;;;;;23.10;29.16;95527.31;4994090;28;20042;-86
2021/01/20 06:00:00;;;;;;;7.82;6.10;;;;;;;23.15;29.26;95535.50;4980400;28;20034;-84
2021/01/20 06:02:25;;;;;;;7.28;5.05;;;;;;;23.12;29.13;95525.59;4995997;28;20045;-89
2021/01/20 06:04:51;;;;;;;6.95;5.05;;;;;;;23.07;28.76;95507.25;4995710;28;20061;-90
2021/01/20 06:07:16;;;;;;;7.55;5.22;;;;;;;23.35;28.81;95531.75;4978208;28;20068;-81
2021/01/20 06:09:43;;;;;;;7.50;5.28;;;;;;;23.46;28.95;95521.59;4993979;28;20030;-81
2021/01/20 06:12:10;;;;;;;6.95;5.20;;;;;;;23.47;28.78;95529.28;4996564;28;20461;-85
2021/01/20 06:14:36;;;;;;;7.40;5.38;;;;;;;23.48;28.44;95530.00;4998165;28;20028;-78
2021/01/20 06:17:14;;;;;;;7.35;4.97;;;;;;;23.57;28.55;95518.84;4993225;28;20027;-79
2021/01/20 06:19:47;;;;;;;6.30;4.72;;;;;;;23.67;28.44;95520.13;4991452;28;20030;-73
2021/01/20 06:22:17;;;;;;;6.55;4.75;;;;;;;23.73;28.27;95523.56;4983973;28;20038;-77
2021/01/20 06:24:49;;;;;;;6.80;4.90;;;;;;;23.82;28.31;95520.56;4998324;28;20034;-80
2021/01/20 06:27:43;;;;;;;6.47;4.70;;;;;;;23.74;28.11;95505.97;4989563;28;20029;-87
2021/01/20 06:30:13;;;;;;;7.50;5.55;;;;;;;23.88;28.21;95531.00;4990632;28;20022;-88
2021/01/20 06:32:42;;;;;;;6.53;4.57;;;;;;;23.99;28.34;95536.41;4991167;28;20018;-84
2021/01/20 06:35:08;;;;;;;5.97;4.65;;;;;;;23.95;28.17;95525.00;4987115;28;20033;-89
2021/01/20 06:37:44;;;;;;;6.45;4.53;;;;;;;24.08;28.07;95552.50;4988662;28;20026;-75
2021/01/20 06:40:22;;;;;;;7.13;5.20;;;;;;;24.08;28.33;95544.31;4997702;28;20023;-86
2021/01/20 06:42:48;;;;;;;7.82;5.07;;;;;;;24.11;28.08;95543.31;4988165;28;20045;-80
2021/01/20 06:45:17;;;;;;;6.43;4.68;;;;;;;24.18;28.24;95550.97;4983461;28;20081;-78
2021/01/20 06:48:01;;;;;;;6.00;4.55;;;;;;;24.25;28.06;95547.72;4982090;28;20405;-80
2021/01/20 06:50:48;;;;;;;6.45;4.82;;;;;;;24.22;27.98;95532.34;4986818;28;20397;-78
2021/01/20 06:53:14;;;;;;;6.25;4.65;;;;;;;24.30;28.04;95549.69;4983531;28;20023;-77
2021/01/20 06:55:39;;;;;;;6.28;4.43;;;;;;;24.30;27.92;95544.22;4997767;28;20033;-79
2021/01/20 06:58:20;;;;;;;6.60;4.57;;;;;;;24.44;27.70;95559.59;4986816;28;20026;-81
2021/01/20 07:01:01;;;;;;;5.85;4.70;;;;;;;24.38;28.10;95572.53;4994326;28;20518;-82
2021/01/20 07:03:43;;;;;;;6.38;4.80;;;;;;;24.46;27.73;95548.91;4994993;28;20030;-79
2021/01/20 07:06:38;;;;;;;7.78;5.15;;;;;;;24.46;27.53;95568.03;4991674;28;20199;-78
2021/01/20 07:09:05;;;;;;;6.82;4.63;;;;;;;24.54;28.07;95568.97;4993540;28;20034;-78
2021/01/20 07:11:30;;;;;;;5.32;4.10;;;;;;;24.46;27.96;95578.94;4993229;28;20019;-80
2021/01/20 07:13:56;;;;;;;6.25;4.53;;;;;;;24.52;28.05;95582.41;4992755;28;20026;-76
2021/01/20 07:16:21;;;;;;;6.32;4.10;;;;;;;24.51;27.91;95580.91;4994015;28;20037;-84
2021/01/20 07:18:48;;;;;;;6.20;4.20;;;;;;;24.56;27.96;95610.19;4995367;28;20110;-86
2021/01/20 07:21:13;;;;;;;5.07;4.10;;;;;;;24.55;27.65;95608.69;4994494;28;20033;-84
2021/01/20 07:23:39;;;;;;;5.18;3.95;;;;;;;24.55;28.01;95597.78;4995229;28;20045;-85
2021/01/20 07:26:06;;;;;;;6.43;4.78;;;;;;;24.54;28.04;95590.81;4994519;28;20030;-83
2021/01/20 07:28:31;;;;;;;6.25;4.43;;;;;;;24.49;27.63;95572.47;4996193;28;20025;-87
2021/01/20 07:31:23;;;;;;;5.35;3.90;;;;;;;24.33;27.76;95597.84;4995209;28;20496;-83
2021/01/20 07:33:51;;;;;;;6.32;4.35;;;;;;;24.29;27.62;95586.44;4996550;28;20038;-83
2021/01/20 07:36:18;;;;;;;5.53;4.30;;;;;;;24.13;27.97;95606.31;4995002;28;20062;-83
2021/01/20 07:38:47;;;;;;;6.07;4.57;;;;;;;23.96;28.45;95586.50;4997766;28;20096;-84
2021/01/20 07:41:17;;;;;;;6.32;4.50;;;;;;;23.86;27.92;95616.53;4991436;28;20034;-69
2021/01/20 07:43:42;;;;;;;6.03;4.20;;;;;;;23.75;28.42;95613.81;4990311;28;20112;-70
2021/01/20 07:46:18;;;;;;;7.05;4.40;;;;;;;23.71;28.09;95614.06;4989922;28;20502;-70
2021/01/20 07:48:44;;;;;;;7.22;4.53;;;;;;;23.73;28.67;95627.19;4990219;28;20495;-70
2021/01/20 07:51:20;;;;;;;6.72;5.10;;;;;;;23.84;28.33;95600.69;4989828;28;20025;-70
2021/01/20 07:54:02;;;;;;;6.72;4.38;;;;;;;23.93;27.91;95614.78;4989298;28;20156;-70
2021/01/20 07:56:27;;;;;;;6.40;4.45;;;;;;;23.95;28.02;95611.56;4989835;28;20086;-70
2021/01/20 07:58:53;;;;;;;5.43;4.18;;;;;;;23.92;28.12;95613.28;4989466;28;20081;-69
2021/01/20 08:01:31;;;;;;;5.88;4.43;;;;;;;23.85;28.14;95607.59;4990289;28;20022;-73
2021/01/20 08:03:57;;;;;;;6.47;4.43;;;;;;;23.85;27.91;95612.31;4986642;28;20036;-68
2021/01/20 08:06:26;;;;;;;5.68;4.28;;;;;;;23.67;28.32;95585.56;4969961;28;20126;-82
2021/01/20 08:08:57;;;;;;;6.63;4.53;;;;;;;23.80;27.96;95621.25;4985164;28;20034;-69
2021/01/20 08:11:25;;;;;;;6.68;4.22;;;;;;;23.77;28.22;95606.63;4979416;28;20054;-69
2021/01/20 08:13:50;;;;;;;6.22;4.47;;;;;;;23.76;28.15;95609.84;4985239;28;20044;-69
2021/01/20 08:16:16;;;;;;;6.05;4.40;;;;;;;23.70;28.24;95623.47;4975564;28;20034;-69
2021/01/20 08:18:43;;;;;;;8.02;4.68;;;;;;;23.66;28.16;95611.31;4981363;28;20043;-70
2021/01/20 08:21:08;;;;;;;5.43;4.15;;;;;;;23.63;28.23;95604.09;4967669;28;20708;-69
2021/01/20 08:23:53;;;;;;;5.35;4.20;;;;;;;23.49;28.21;95602.38;4984103;28;20026;-69
2021/01/20 08:26:22;;;;;;;5.82;4.35;;;;;;;23.37;28.40;95590.00;4973578;28;20492;-69
2021/01/20 08:29:21;;;;;;;5.20;4.10;;;;;;;23.45;28.56;95601.88;4986475;28;20019;-69
2021/01/20 08:31:47;;;;;;;5.22;3.78;;;;;;;23.43;28.32;95612.53;4972042;28;20499;-69
2021/01/20 08:34:19;;;;;;;6.93;4.63;;;;;;;23.40;28.36;95616.25;4985509;28;20039;-69
2021/01/20 08:36:54;;;;;;;5.75;4.35;;;;;;;23.33;28.33;95614.00;4991792;28;20023;-69
2021/01/20 08:39:20;;;;;;;6.70;4.35;;;;;;;23.30;28.67;95601.38;4982304;28;20036;-79
2021/01/20 08:42:26;;;;;;;6.13;4.25;;;;;;;23.27;29.03;95602.34;4997100;28;20022;-82
2021/01/20 08:45:20;;;;;;;6.15;4.55;;;;;;;23.21;29.23;95603.59;4991442;28;20053;-68
2021/01/20 08:48:07;;;;;;;6.95;4.57;;;;;;;23.23;29.44;95606.56;4986499;28;20030;-68
2021/01/20 08:50:43;;;;;;;7.55;4.60;;;;;;;23.19;29.20;95609.53;4996655;28;20053;-70
2021/01/20 08:53:23;;;;;;;6.63;4.60;;;;;;;23.15;29.11;95611.03;4996044;28;20499;-69
2021/01/20 08:55:52;;;;;;;6.45;4.68;;;;;;;23.15;29.22;95606.34;4994842;28;20061;-69
2021/01/20 08:58:27;;;;;;;7.15;5.03;;;;;;;23.11;29.16;95616.72;4988500;28;20500;-69
2021/01/20 09:01:01;;;;;;;6.85;4.90;;;;;;;23.10;29.11;95609.78;4985881;28;20469;-68
2021/01/20 09:03:38;;;;;;;5.93;4.43;;;;;;;22.98;29.28;95591.19;4992818;28;20031;-69
2021/01/20 09:06:05;;;;;;;6.65;4.47;;;;;;;23.08;29.31;95608.81;4977232;28;20497;-68
2021/01/20 09:08:31;;;;;;;5.97;4.45;;;;;;;23.05;29.26;95624.13;4984234;28;20030;-70
2021/01/20 09:10:58;;;;;;;6.43;4.40;;;;;;;23.03;28.87;95609.50;4992159;28;20030;-69
2021/01/20 09:13:23;;;;;;;7.32;4.97;;;;;;;22.97;29.58;95628.59;4992655;28;20025;-69
2021/01/20 09:15:50;;;;;;;6.45;4.60;;;;;;;22.97;29.22;95617.69;4974987;28;20062;-68
2021/01/20 09:18:16;;;;;;;7.75;5.10;;;;;;;22.93;29.34;95609.00;4973182;28;20039;-69
2021/01/20 09:20:41;;;;;;;5.78;4.45;;;;;;;22.95;29.27;95601.06;4975593;28;20058;-69
2021/01/20 09:23:07;;;;;;;7.38;4.80;;;;;;;22.99;28.97;95598.88;4976817;28;20026;-69
2021/01/20 09:25:32;;;;;;;7.20;4.53;;;;;;;22.95;29.00;95603.81;4974755;28;20511;-69
2021/01/20 09:27:58;;;;;;;7.68;4.90;;;;;;;22.97;29.00;95590.47;4974795;28;20027;-69
2021/01/20 09:30:23;;;;;;;7.25;5.32;;;;;;;22.82;28.46;95577.50;4973771;28;20026;-69
2021/01/20 09:32:49;;;;;;;6.25;4.78;;;;;;;22.94;28.71;95580.53;4992873;28;20046;-69
2021/01/20 09:35:15;;;;;;;6.93;5.03;;;;;;;22.88;28.84;95582.47;4984557;28;20030;-68
2021/01/20 09:37:41;;;;;;;7.43;5.22;;;;;;;22.92;28.83;95571.34;4987090;28;20022;-69
2021/01/20 09:40:08;;;;;;;7.28;5.07;;;;;;;22.92;28.45;95566.63;4991060;28;20031;-69
2021/01/20 09:42:37;;;;;;;7.80;5.22;;;;;;;22.94;28.38;95568.88;4991439;28;20080;-68
2021/01/20 09:45:03;;;;;;;7.53;5.60;;;;;;;22.94;28.85;95555.28;4989556;28;20045;-69
2021/01/20 09:47:29;;;;;;;8.00;5.20;;;;;;;22.93;28.39;95559.97;4989241;28;20034;-68
2021/01/20 09:49:54;;;;;;;8.05;5.25;;;;;;;22.91;28.54;95559.72;4991980;28;20419;-69
2021/01/20 09:52:25;;;;;;;7.95;4.90;;;;;;;22.84;28.80;95542.34;4991765;28;20026;-69
2021/01/20 09:54:51;;;;;;;7.75;5.78;;;;;;;22.87;28.18;95546.81;4992502;28;20050;-69
2021/01/20 09:57:16;;;;;;;7.40;5.40;;;;;;;22.88;28.27;95544.34;4991636;28;20093;-69
2021/01/20 09:59:42;;;;;;;7.07;5.38;;;;;;;22.83;28.50;95536.16;4991297;28;20033;-69
2021/01/20 10:02:07;;;;;;;6.72;5.60;;;;;;;22.87;28.75;95535.91;4991053;28;20089;-69
2021/01/20 10:04:33;;;;;;;7.53;5.40;;;;;;;22.87;28.94;95536.69;4993664;28;20033;-71
2021/01/20 10:06:58;;;;;;;7.45;5.15;;;;;;;22.88;29.24;95537.41;4992774;28;20026;-72
2021/01/20 10:09:25;;;;;;;6.65;5.00;;;;;;;22.88;29.33;95518.34;4991862;28;20034;-71
2021/01/20 10:11:51;;;;;;;7.32;5.35;;;;;;;22.88;29.16;95518.34;4990290;28;20069;-71
2021/01/20 10:14:17;;;;;;;6.93;4.88;;;;;;;22.88;29.21;95515.63;4991567;28;20092;-71
2021/01/20 10:16:46;;;;;;;6.75;4.90;;;;;;;22.88;29.45;95515.63;4989081;28;20412;-72
2021/01/20 10:19:15;;;;;;;6.33;4.97;;;;;;;22.86;29.41;95518.09;4980884;28;20030;-71
2021/01/20 10:21:40;;;;;;;6.50;5.10;;;;;;;22.89;29.41;95518.59;4992235;28;20526;-71
2021/01/20 10:24:07;;;;;;;6.85;5.05;;;;;;;22.95;29.70;95516.66;4991716;28;20057;-70
2021/01/20 10:26:32;;;;;;;7.43;4.72;;;;;;;22.99;29.59;95511.72;4992307;28;20100;-70
2021/01/20 10:28:57;;;;;;;6.85;4.88;;;;;;;23.02;29.36;95499.81;4983103;28;20515;-70
2021/01/20 10:31:27;;;;;;;8.68;5.47;;;;;;;23.11;29.29;95512.47;4974930;28;20819;-70
2021/01/20 10:33:53;;;;;;;6.35;4.72;;;;;;;23.14;29.18;95506.03;4993634;28;20080;-83
2021/01/20 10:36:18;;;;;;;7.70;5.32;;;;;;;23.27;29.25;95501.53;4995829;28;20034;-80
2021/01/20 10:38:44;;;;;;;7.22;5.07;;;;;;;23.38;29.60;95499.56;4995574;28;20411;-90
2021/01/20 10:41:09;;;;;;;8.05;5.25;;;;;;;23.48;29.31;95502.75;4996103;28;20018;-84
2021/01/20 10:43:35;;;;;;;6.78;4.88;;;;;;;23.58;29.28;95502.00;4992098;28;20022;-79
2021/01/20 10:46:00;;;;;;;7.55;5.22;;;;;;;23.64;29.46;95467.31;4991077;28;20389;-82
2021/01/20 10:48:26;;;;;;;8.32;5.68;;;;;;;23.84;28.42;95463.53;4987399;28;20018;-83
2021/01/20 10:50:51;;;;;;;9.05;6.03;;;;;;;23.98;27.54;95471.44;4994475;28;20049;-81
2021/01/20 10:53:17;;;;;;;10.07;6.05;;;;;;;24.05;27.48;95462.69;4995285;28;20022;-82
2021/01/20 10:55:42;;;;;;;8.73;6.00;;;;;;;24.00;28.51;95466.94;4984868;28;20443;-81
2021/01/20 10:58:08;;;;;;;9.55;5.90;;;;;;;24.19;28.42;95484.22;4995366;28;20881;-84
2021/01/20 11:00:33;;;;;;;11.57;6.13;;;;;;;24.28;28.48;95486.66;4993018;28;20031;-83
2021/01/20 11:02:59;;;;;;;9.95;6.05;;;;;;;24.40;28.43;95477.22;4992864;28;20026;-83
2021/01/20 11:05:25;;;;;;;9.10;6.13;;;;;;;24.52;28.87;95481.38;4990946;28;20027;-83
2021/01/20 11:07:50;;;;;;;8.35;6.00;;;;;;;24.60;28.47;95476.84;5021164;23;20055;-82
2021/01/20 11:10:16;;;;;;;10.38;6.22;;;;;;;24.66;28.20;95466.63;4980658;28;20027;-69
2021/01/20 11:12:41;;;;;;;9.32;6.57;;;;;;;24.80;28.57;95465.53;4974742;28;20073;-69
2021/01/20 11:15:08;;;;;;;8.57;6.43;;;;;;;24.81;28.74;95456.81;4983151;28;20035;-69
2021/01/20 11:17:33;;;;;;;9.38;5.80;;;;;;;24.72;28.62;95453.66;4980361;28;20047;-70
2021/01/20 11:19:59;;;;;;;7.80;5.35;;;;;;;24.63;28.65;95441.06;4963288;28;20483;-68
2021/01/20 11:22:24;;;;;;;8.20;5.78;;;;;;;24.80;28.90;95460.06;4983205;28;20069;-77
2021/01/20 11:25:00;;;;;;;8.63;6.47;;;;;;;24.78;28.53;95440.72;4980527;28;20045;-87
2021/01/20 11:27:25;;;;;;;11.35;6.60;;;;;;;24.91;28.63;95450.53;4974667;28;20018;-84
2021/01/20 11:29:51;;;;;;;10.32;6.25;;;;;;;25.11;28.21;95463.84;4974211;28;20401;-79
2021/01/20 11:32:16;;;;;;;9.68;6.47;;;;;;;25.24;28.22;95460.50;4972400;28;20023;-77
2021/01/20 11:34:42;;;;;;;8.93;6.25;;;;;;;25.26;28.38;95464.22;4974133;28;20045;-76
2021/01/20 11:37:08;;;;;;;8.68;6.43;;;;;;;25.22;28.41;95458.28;4973720;28;20392;-87